createdAt,value
2022-09-28T00:00:11.062Z,9.11
2022-09-28T00:01:18.066Z,9.08
2022-09-28T00:02:11.177Z,9.06
2022-09-28T00:03:11.117Z,9.07
2022-09-28T00:04:11.069Z,9.05
2022-09-28T00:05:11.061Z,9.03
2022-09-28T00:06:11.058Z,9.02
2022-09-28T00:07:11.066Z,9.03
2022-09-28T00:08:11.061Z,9.03
2022-09-28T00:09:11.060Z,9.01
2022-09-28T00:10:11.060Z,9.01
2022-09-28T00:11:12.066Z,9.00
2022-09-28T00:12:11.060Z,8.98
2022-09-28T00:13:11.063Z,8.97
2022-09-28T00:14:11.064Z,8.98
2022-09-28T00:15:11.059Z,9.00
2022-09-28T00:16:15.080Z,8.99
2022-09-28T00:17:11.063Z,8.98
2022-09-28T00:18:11.059Z,8.98
2022-09-28T00:19:11.067Z,8.98
2022-09-28T00:20:11.063Z,8.97
2022-09-28T00:21:11.054Z,8.96
2022-09-28T00:22:11.060Z,8.93
2022-09-28T00:23:11.059Z,8.93
2022-09-28T00:24:15.252Z,8.94
2022-09-28T00:25:11.057Z,8.97
2022-09-28T00:26:11.065Z,8.94
2022-09-28T00:27:11.056Z,8.94
2022-09-28T00:28:11.056Z,8.94
2022-09-28T00:29:15.120Z,8.92
2022-09-28T00:30:11.057Z,8.93
2022-09-28T00:31:11.137Z,8.92
2022-09-28T00:32:13.061Z,8.93
2022-09-28T00:33:11.056Z,8.93
2022-09-28T00:34:11.059Z,8.91
2022-09-28T00:35:11.066Z,8.85
2022-09-28T00:36:11.058Z,8.87
2022-09-28T00:37:11.059Z,8.87
2022-09-28T00:38:13.059Z,8.89
2022-09-28T00:39:11.058Z,8.88
2022-09-28T00:40:11.062Z,8.89
2022-09-28T00:41:12.066Z,8.90
2022-09-28T00:42:19.056Z,8.89
2022-09-28T00:43:20.061Z,8.89
2022-09-28T00:44:19.058Z,8.88
2022-09-28T00:45:12.068Z,8.88
2022-09-28T00:46:17.083Z,8.87
2022-09-28T00:47:19.055Z,8.87
2022-09-28T00:48:11.062Z,8.81
2022-09-28T00:49:15.081Z,8.82
2022-09-28T00:50:17.060Z,8.83
2022-09-28T00:51:12.056Z,8.84
2022-09-28T00:52:14.066Z,8.83
2022-09-28T00:53:19.058Z,8.86
2022-09-28T00:54:11.059Z,8.86
2022-09-28T00:55:17.065Z,8.85
2022-09-28T00:56:14.061Z,8.82
2022-09-28T00:57:11.058Z,8.81
2022-09-28T00:58:12.060Z,8.80
2022-09-28T00:59:11.069Z,8.82
2022-09-28T01:00:11.058Z,8.81
2022-09-28T01:01:11.085Z,8.82
2022-09-28T01:02:11.131Z,8.81
2022-09-28T01:03:11.058Z,8.80
2022-09-28T01:04:11.063Z,8.82
2022-09-28T01:05:11.070Z,8.81
2022-09-28T01:06:11.060Z,8.81
2022-09-28T01:07:11.061Z,8.80
2022-09-28T01:08:11.067Z,8.80
2022-09-28T01:09:11.062Z,8.78
2022-09-28T01:10:11.059Z,8.78
2022-09-28T01:11:11.060Z,8.78
2022-09-28T01:12:11.062Z,8.76
2022-09-28T01:13:11.059Z,8.76
2022-09-28T01:14:11.076Z,8.77
2022-09-28T01:15:11.071Z,8.76
2022-09-28T01:16:19.180Z,8.76
2022-09-28T01:17:15.062Z,8.78
2022-09-28T01:18:19.079Z,8.77
2022-09-28T01:19:19.063Z,8.77
2022-09-28T01:20:21.063Z,8.78
2022-09-28T01:21:20.059Z,8.78
2022-09-28T01:22:19.061Z,8.78
2022-09-28T01:23:19.063Z,8.77
2022-09-28T01:24:25.062Z,8.76
2022-09-28T01:25:21.059Z,8.76
2022-09-28T01:26:19.061Z,8.75
2022-09-28T01:27:21.061Z,8.74
2022-09-28T01:28:15.068Z,8.73
2022-09-28T01:29:19.058Z,8.71
2022-09-28T01:30:14.054Z,8.70
2022-09-28T01:31:15.224Z,8.68
2022-09-28T01:32:21.059Z,8.67
2022-09-28T01:33:13.057Z,8.67
2022-09-28T01:34:16.059Z,8.69
2022-09-28T01:35:17.061Z,8.68
2022-09-28T01:36:19.060Z,8.68
2022-09-28T01:37:14.058Z,8.70
2022-09-28T01:38:18.061Z,8.67
2022-09-28T01:39:14.232Z,8.70
2022-09-28T01:40:11.062Z,8.71
2022-09-28T01:41:11.057Z,8.70
2022-09-28T01:42:14.060Z,8.70
2022-09-28T01:43:16.061Z,8.70
2022-09-28T01:44:12.060Z,8.68
2022-09-28T01:45:18.063Z,8.67
2022-09-28T01:46:21.096Z,8.66
2022-09-28T01:47:12.068Z,8.66
2022-09-28T01:48:12.081Z,8.65
2022-09-28T01:49:14.124Z,8.67
2022-09-28T01:50:14.062Z,8.68
2022-09-28T01:51:14.059Z,8.69
2022-09-28T01:52:19.064Z,8.69
2022-09-28T01:53:18.067Z,8.71
2022-09-28T01:54:16.063Z,8.71
2022-09-28T01:55:23.059Z,8.72
2022-09-28T01:56:19.056Z,8.71
2022-09-28T01:57:21.062Z,8.70
2022-09-28T01:58:17.069Z,8.70
2022-09-28T01:59:16.161Z,8.72
2022-09-28T02:00:14.061Z,8.72
2022-09-28T02:01:16.114Z,8.70
2022-09-28T02:02:15.142Z,8.70
2022-09-28T02:03:19.061Z,8.71
2022-09-28T02:04:19.063Z,8.71
2022-09-28T02:05:15.062Z,8.71
2022-09-28T02:06:17.069Z,8.71
2022-09-28T02:07:16.064Z,8.65
2022-09-28T02:08:19.058Z,8.66
2022-09-28T02:09:13.153Z,8.67
2022-09-28T02:10:19.061Z,8.69
2022-09-28T02:11:14.062Z,8.69
2022-09-28T02:12:19.062Z,8.66
2022-09-28T02:13:16.069Z,8.68
2022-09-28T02:14:12.063Z,8.69
2022-09-28T02:15:19.062Z,8.70
2022-09-28T02:16:21.086Z,8.69
2022-09-28T02:17:11.066Z,8.70
2022-09-28T02:18:11.064Z,8.71
2022-09-28T02:19:16.082Z,8.70
2022-09-28T02:20:11.063Z,8.69
2022-09-28T02:21:17.063Z,8.68
2022-09-28T02:22:19.056Z,8.68
2022-09-28T02:23:11.057Z,8.69
2022-09-28T02:24:21.515Z,8.68
2022-09-28T02:25:23.066Z,8.66
2022-09-28T02:26:13.058Z,8.65
2022-09-28T02:27:15.057Z,8.65
2022-09-28T02:28:11.056Z,8.64
2022-09-28T02:29:11.105Z,8.63
2022-09-28T02:30:11.056Z,8.64
2022-09-28T02:31:11.153Z,8.65
2022-09-28T02:32:11.059Z,8.65
2022-09-28T02:33:21.056Z,8.64
2022-09-28T02:34:11.059Z,8.63
2022-09-28T02:35:14.066Z,8.63
2022-09-28T02:36:11.060Z,8.64
2022-09-28T02:37:11.054Z,8.62
2022-09-28T02:38:11.066Z,8.58
2022-09-28T02:39:15.193Z,8.58
2022-09-28T02:40:21.094Z,8.60
2022-09-28T02:41:21.058Z,8.62
2022-09-28T02:42:19.062Z,8.63
2022-09-28T02:43:21.068Z,8.62
2022-09-28T02:44:19.059Z,8.61
2022-09-28T02:45:21.067Z,8.64
2022-09-28T02:46:21.063Z,8.62
2022-09-28T02:47:19.059Z,8.61
2022-09-28T02:48:27.190Z,8.61
2022-09-28T02:49:23.524Z,8.60
2022-09-28T02:50:19.057Z,8.58
2022-09-28T02:51:21.069Z,8.58
2022-09-28T02:52:19.059Z,8.55
2022-09-28T02:53:19.072Z,8.53
2022-09-28T02:54:21.066Z,8.53
2022-09-28T02:55:21.057Z,8.52
2022-09-28T02:56:21.056Z,8.51
2022-09-28T02:57:19.058Z,8.51
2022-09-28T02:58:21.081Z,8.46
2022-09-28T02:59:21.075Z,8.48
2022-09-28T03:00:17.059Z,8.49
2022-09-28T03:01:21.138Z,8.50
2022-09-28T03:02:19.138Z,8.52
2022-09-28T03:03:19.085Z,8.52
2022-09-28T03:04:21.061Z,8.49
2022-09-28T03:05:19.060Z,8.49
2022-09-28T03:06:19.056Z,8.50
2022-09-28T03:07:23.073Z,8.50
2022-09-28T03:08:21.063Z,8.51
2022-09-28T03:09:18.222Z,8.51
2022-09-28T03:10:21.063Z,8.50
2022-09-28T03:11:20.058Z,8.48
2022-09-28T03:12:12.061Z,8.46
2022-09-28T03:13:11.062Z,8.46
2022-09-28T03:14:11.062Z,8.44
2022-09-28T03:15:19.064Z,8.45
2022-09-28T03:16:14.122Z,8.44
2022-09-28T03:17:11.062Z,8.43
2022-09-28T03:18:11.059Z,8.41
2022-09-28T03:19:13.101Z,8.42
2022-09-28T03:20:11.062Z,8.40
2022-09-28T03:21:11.057Z,8.41
2022-09-28T03:22:11.055Z,8.39
2022-09-28T03:23:24.723Z,8.40
2022-09-28T03:24:13.088Z,8.40
2022-09-28T03:25:11.058Z,8.39
2022-09-28T03:26:12.065Z,8.38
2022-09-28T03:27:11.057Z,8.38
2022-09-28T03:28:11.059Z,8.40
2022-09-28T03:29:11.231Z,8.40
2022-09-28T03:30:11.057Z,8.40
2022-09-28T03:31:11.137Z,8.41
2022-09-28T03:32:11.066Z,8.41
2022-09-28T03:33:11.059Z,8.42
2022-09-28T03:34:11.063Z,8.44
2022-09-28T03:35:11.066Z,8.44
2022-09-28T03:36:11.059Z,8.42
2022-09-28T03:37:11.058Z,8.44
2022-09-28T03:38:11.062Z,8.44
2022-09-28T03:39:11.128Z,8.44
2022-09-28T03:40:11.059Z,8.45
2022-09-28T03:41:11.059Z,8.45
2022-09-28T03:42:11.057Z,8.45
2022-09-28T03:43:11.060Z,8.47
2022-09-28T03:44:11.067Z,8.47
2022-09-28T03:45:11.057Z,8.46
2022-09-28T03:46:11.130Z,8.45
2022-09-28T03:47:11.062Z,8.46
2022-09-28T03:48:11.057Z,8.47
2022-09-28T03:49:11.142Z,8.45
2022-09-28T03:50:11.062Z,8.44
2022-09-28T03:51:12.069Z,8.44
2022-09-28T03:52:11.059Z,8.45
2022-09-28T03:53:11.069Z,8.44
2022-09-28T03:54:11.059Z,8.42
2022-09-28T03:55:11.061Z,8.44
2022-09-28T03:56:13.065Z,8.44
2022-09-28T03:57:11.061Z,8.44
2022-09-28T03:58:11.060Z,8.45
2022-09-28T03:59:11.208Z,8.46
2022-09-28T04:00:11.059Z,8.46
2022-09-28T04:01:16.418Z,8.46
2022-09-28T04:02:13.241Z,8.46
2022-09-28T04:03:11.062Z,8.46
2022-09-28T04:04:13.061Z,8.44
2022-09-28T04:05:11.068Z,8.43
2022-09-28T04:06:11.061Z,8.42
2022-09-28T04:07:11.062Z,8.40
2022-09-28T04:08:11.068Z,8.38
2022-09-28T04:09:11.062Z,8.36
2022-09-28T04:10:11.062Z,8.36
2022-09-28T04:11:11.063Z,8.35
2022-09-28T04:12:11.060Z,8.35
2022-09-28T04:13:11.063Z,8.33
2022-09-28T04:14:11.070Z,8.32
2022-09-28T04:15:11.061Z,8.30
2022-09-28T04:16:11.152Z,8.30
2022-09-28T04:17:11.063Z,8.29
2022-09-28T04:18:13.061Z,8.25
2022-09-28T04:19:11.062Z,8.27
2022-09-28T04:20:11.065Z,8.26
2022-09-28T04:21:12.057Z,8.25
2022-09-28T04:22:11.056Z,8.23
2022-09-28T04:23:11.061Z,8.22
2022-09-28T04:24:11.058Z,8.21
2022-09-28T04:25:11.059Z,8.20
2022-09-28T04:26:19.059Z,8.20
2022-09-28T04:27:15.058Z,8.20
2022-09-28T04:28:15.055Z,8.18
2022-09-28T04:29:15.059Z,8.17
2022-09-28T04:30:11.065Z,8.18
2022-09-28T04:31:11.061Z,8.18
2022-09-28T04:32:11.061Z,8.16
2022-09-28T04:33:11.062Z,8.17
2022-09-28T04:34:11.058Z,8.15
2022-09-28T04:35:11.062Z,8.15
2022-09-28T04:36:11.061Z,8.14
2022-09-28T04:37:11.059Z,8.14
2022-09-28T04:38:11.058Z,8.12
2022-09-28T04:39:11.061Z,8.12
2022-09-28T04:40:11.058Z,8.09
2022-09-28T04:41:11.061Z,8.09
2022-09-28T04:42:11.061Z,8.09
2022-09-28T04:43:11.059Z,8.10
2022-09-28T04:44:11.061Z,8.08
2022-09-28T04:45:11.062Z,8.09
2022-09-28T04:46:11.135Z,8.09
2022-09-28T04:47:11.097Z,8.08
2022-09-28T04:48:11.064Z,8.08
2022-09-28T04:49:11.159Z,8.08
2022-09-28T04:50:11.061Z,8.08
2022-09-28T04:51:11.067Z,8.08
2022-09-28T04:52:17.172Z,8.07
2022-09-28T04:53:13.087Z,8.07
2022-09-28T04:54:11.067Z,8.08
2022-09-28T04:55:14.058Z,8.06
2022-09-28T04:56:12.064Z,8.06
2022-09-28T04:57:11.067Z,8.06
2022-09-28T04:58:11.075Z,8.06
2022-09-28T04:59:11.130Z,8.06
2022-09-28T05:00:11.063Z,8.07
2022-09-28T05:01:12.152Z,8.07
2022-09-28T05:02:11.140Z,8.08
2022-09-28T05:03:11.063Z,8.11
2022-09-28T05:04:11.061Z,8.10
2022-09-28T05:05:11.057Z,8.09
2022-09-28T05:06:15.070Z,8.10
2022-09-28T05:07:11.063Z,8.11
2022-09-28T05:08:11.059Z,8.12
2022-09-28T05:09:11.099Z,8.13
2022-09-28T05:10:11.069Z,8.12
2022-09-28T05:11:12.060Z,8.13
2022-09-28T05:12:11.062Z,8.11
2022-09-28T05:13:11.069Z,8.11
2022-09-28T05:14:11.061Z,8.09
2022-09-28T05:15:11.063Z,8.10
2022-09-28T05:16:11.119Z,8.10
2022-09-28T05:17:11.061Z,8.10
2022-09-28T05:18:11.063Z,8.11
2022-09-28T05:19:11.071Z,8.12
2022-09-28T05:20:11.063Z,8.12
2022-09-28T05:21:15.061Z,8.12
2022-09-28T05:22:15.077Z,8.13
2022-09-28T05:23:13.059Z,8.13
2022-09-28T05:24:11.058Z,8.13
2022-09-28T05:25:11.061Z,8.11
2022-09-28T05:26:11.058Z,8.12
2022-09-28T05:27:11.057Z,8.11
2022-09-28T05:28:11.059Z,8.09
2022-09-28T05:29:11.101Z,8.10
2022-09-28T05:30:11.059Z,8.10
2022-09-28T05:31:11.068Z,8.11
2022-09-28T05:32:11.124Z,8.09
2022-09-28T05:33:11.059Z,8.08
2022-09-28T05:34:11.060Z,8.07
2022-09-28T05:35:11.062Z,8.06
2022-09-28T05:36:13.062Z,8.04
2022-09-28T05:37:11.083Z,8.06
2022-09-28T05:38:11.060Z,8.06
2022-09-28T05:39:11.178Z,8.05
2022-09-28T05:40:11.058Z,8.04
2022-09-28T05:41:11.179Z,8.01
2022-09-28T05:42:11.084Z,8.00
2022-09-28T05:43:11.059Z,7.99
2022-09-28T05:44:11.122Z,7.97
2022-09-28T05:45:11.057Z,7.97
2022-09-28T05:46:11.198Z,7.96
2022-09-28T05:47:11.065Z,7.96
2022-09-28T05:48:11.076Z,7.96
2022-09-28T05:49:11.060Z,7.95
2022-09-28T05:50:11.070Z,7.93
2022-09-28T05:51:11.063Z,7.94
2022-09-28T05:52:11.059Z,7.93
2022-09-28T05:53:11.066Z,7.96
2022-09-28T05:54:11.064Z,7.97
2022-09-28T05:55:11.071Z,7.94
2022-09-28T05:56:11.067Z,7.96
2022-09-28T05:57:11.061Z,7.97
2022-09-28T05:58:11.058Z,7.99
2022-09-28T05:59:11.068Z,8.01
2022-09-28T06:00:12.068Z,8.01
2022-09-28T06:01:11.099Z,8.01
2022-09-28T06:02:11.085Z,7.99
2022-09-28T06:03:13.062Z,8.00
2022-09-28T06:04:11.166Z,8.00
2022-09-28T06:05:11.062Z,8.00
2022-09-28T06:06:11.059Z,7.97
2022-09-28T06:07:11.056Z,7.96
2022-09-28T06:08:11.070Z,7.96
2022-09-28T06:09:11.062Z,7.92
2022-09-28T06:10:11.056Z,7.91
2022-09-28T06:11:11.063Z,7.90
2022-09-28T06:12:11.061Z,7.91
2022-09-28T06:13:11.059Z,7.92
2022-09-28T06:14:11.163Z,7.91
2022-09-28T06:15:11.061Z,7.90
2022-09-28T06:16:14.112Z,7.88
2022-09-28T06:17:11.061Z,7.88
2022-09-28T06:18:13.062Z,7.87
2022-09-28T06:19:11.063Z,7.89
2022-09-28T06:20:11.060Z,7.90
2022-09-28T06:21:12.058Z,7.88
2022-09-28T06:22:11.057Z,7.84
2022-09-28T06:23:13.057Z,7.83
2022-09-28T06:24:11.091Z,7.82
2022-09-28T06:25:11.056Z,7.82
2022-09-28T06:26:11.058Z,7.81
2022-09-28T06:27:11.061Z,7.81
2022-09-28T06:28:14.078Z,7.80
2022-09-28T06:29:13.691Z,7.80
2022-09-28T06:30:11.066Z,7.79
2022-09-28T06:31:11.149Z,7.78
2022-09-28T06:32:11.059Z,7.77
2022-09-28T06:33:12.067Z,7.79
2022-09-28T06:34:11.173Z,7.79
2022-09-28T06:35:11.060Z,7.80
2022-09-28T06:36:11.066Z,7.80
2022-09-28T06:37:11.059Z,7.82
2022-09-28T06:38:11.064Z,7.83
2022-09-28T06:39:11.066Z,7.83
2022-09-28T06:40:11.064Z,7.82
2022-09-28T06:41:11.054Z,7.83
2022-09-28T06:42:11.063Z,7.85
2022-09-28T06:43:16.061Z,7.83
2022-09-28T06:44:11.103Z,7.85
2022-09-28T06:45:11.061Z,7.86
2022-09-28T06:46:11.101Z,7.89
2022-09-28T06:47:11.068Z,7.88
2022-09-28T06:48:11.061Z,7.88
2022-09-28T06:49:16.161Z,7.90
2022-09-28T06:50:17.891Z,7.93
2022-09-28T06:51:11.061Z,7.93
2022-09-28T06:52:11.067Z,7.96
2022-09-28T06:53:15.061Z,7.98
2022-09-28T06:54:11.102Z,7.99
2022-09-28T06:55:11.059Z,8.01
2022-09-28T06:56:11.065Z,7.99
2022-09-28T06:57:11.060Z,8.03
2022-09-28T06:58:12.070Z,8.04
2022-09-28T06:59:11.063Z,8.07
2022-09-28T07:00:11.055Z,8.09
2022-09-28T07:01:11.161Z,8.09
2022-09-28T07:02:12.098Z,8.11
2022-09-28T07:03:15.057Z,8.16
2022-09-28T07:04:11.128Z,8.17
2022-09-28T07:05:13.060Z,8.20
2022-09-28T07:06:12.059Z,8.21
2022-09-28T07:07:13.064Z,8.24
2022-09-28T07:08:11.061Z,8.28
2022-09-28T07:09:25.625Z,8.30
2022-09-28T07:10:13.355Z,8.34
2022-09-28T07:11:11.068Z,8.38
2022-09-28T07:12:13.059Z,8.39
2022-09-28T07:13:32.803Z,8.40
2022-09-28T07:14:25.373Z,8.41
2022-09-28T07:15:13.337Z,8.46
2022-09-28T07:16:11.071Z,8.50
2022-09-28T07:17:14.057Z,8.54
2022-09-28T07:18:11.127Z,8.57
2022-09-28T07:19:11.064Z,8.62
2022-09-28T07:20:17.760Z,8.68
2022-09-28T07:21:22.798Z,8.73
2022-09-28T07:22:17.463Z,8.77
2022-09-28T07:23:18.349Z,8.82
2022-09-28T07:24:13.068Z,8.84
2022-09-28T07:25:11.060Z,8.88
2022-09-28T07:26:11.056Z,8.94
2022-09-28T07:27:11.059Z,9.00
2022-09-28T07:28:11.060Z,9.05
2022-09-28T07:29:11.059Z,9.10
2022-09-28T07:30:11.160Z,9.15
2022-09-28T07:31:11.219Z,9.21
2022-09-28T07:32:11.058Z,9.26
2022-09-28T07:33:12.057Z,9.34
2022-09-28T07:34:11.102Z,9.38
2022-09-28T07:35:11.065Z,9.45
2022-09-28T07:36:11.058Z,9.49
2022-09-28T07:37:11.059Z,9.54
2022-09-28T07:38:11.065Z,9.61
2022-09-28T07:39:11.057Z,9.68
2022-09-28T07:40:15.327Z,9.72
2022-09-28T07:41:15.059Z,9.78
2022-09-28T07:42:11.061Z,9.83
2022-09-28T07:43:11.067Z,9.89
2022-09-28T07:44:11.214Z,9.95
2022-09-28T07:45:11.060Z,9.99
2022-09-28T07:46:13.221Z,10.01
2022-09-28T07:47:11.058Z,10.08
2022-09-28T07:49:12.428Z,10.22
2022-09-28T07:50:11.151Z,10.25
2022-09-28T07:51:11.059Z,10.30
2022-09-28T07:52:11.062Z,10.29
2022-09-28T07:53:11.062Z,10.34
2022-09-28T07:54:11.060Z,10.39
2022-09-28T07:55:11.060Z,10.48
2022-09-28T07:56:13.061Z,10.50
2022-09-28T07:57:11.062Z,10.54
2022-09-28T07:58:11.067Z,10.60
2022-09-28T07:59:11.175Z,10.67
2022-09-28T08:00:12.060Z,10.70
2022-09-28T08:01:11.177Z,10.75
2022-09-28T08:02:11.117Z,10.76
2022-09-28T08:03:11.063Z,10.80
2022-09-28T08:04:11.072Z,10.81
2022-09-28T08:05:11.064Z,10.86
2022-09-28T08:06:11.060Z,10.92
2022-09-28T08:07:11.068Z,10.98
2022-09-28T08:08:11.064Z,10.99
2022-09-28T08:09:11.154Z,11.06
2022-09-28T08:10:11.140Z,11.13
2022-09-28T08:11:14.062Z,11.15
2022-09-28T08:12:11.060Z,11.17
2022-09-28T08:13:11.063Z,11.26
2022-09-28T08:14:11.073Z,11.26
2022-09-28T08:15:14.064Z,11.33
2022-09-28T08:16:12.156Z,11.40
2022-09-28T08:17:11.065Z,11.42
2022-09-28T08:18:11.060Z,11.43
2022-09-28T08:19:11.061Z,11.50
2022-09-28T08:20:15.066Z,11.51
2022-09-28T08:21:15.058Z,11.57
2022-09-28T08:22:11.058Z,11.62
2022-09-28T08:23:11.058Z,11.63
2022-09-28T08:24:11.168Z,11.64
2022-09-28T08:25:11.058Z,11.61
2022-09-28T08:26:14.588Z,11.65
2022-09-28T08:27:11.057Z,11.71
2022-09-28T08:28:11.063Z,11.76
2022-09-28T08:29:11.066Z,11.76
2022-09-28T08:30:11.059Z,11.85
2022-09-28T08:31:11.155Z,11.87
2022-09-28T08:32:11.069Z,11.90
2022-09-28T08:33:11.057Z,12.01
2022-09-28T08:34:11.143Z,12.14
2022-09-28T08:35:11.066Z,12.18
2022-09-28T08:36:11.060Z,12.20
2022-09-28T08:37:11.059Z,12.28
2022-09-28T08:38:11.066Z,12.22
2022-09-28T08:39:11.061Z,12.29
2022-09-28T08:40:18.146Z,12.35
2022-09-28T08:41:19.060Z,12.23
2022-09-28T08:42:19.087Z,12.24
2022-09-28T08:43:22.061Z,12.28
2022-09-28T08:44:15.093Z,12.36
2022-09-28T08:45:14.055Z,12.39
2022-09-28T08:46:12.141Z,12.39
2022-09-28T08:47:21.061Z,12.49
2022-09-28T08:48:25.064Z,12.46
2022-09-28T08:49:25.355Z,12.47
2022-09-28T08:50:18.103Z,12.55
2022-09-28T08:51:18.068Z,12.55
2022-09-28T08:52:21.137Z,12.58
2022-09-28T08:53:19.059Z,12.69
2022-09-28T08:54:19.115Z,12.74
2022-09-28T08:55:22.061Z,12.82
2022-09-28T08:56:17.063Z,12.90
2022-09-28T08:57:19.062Z,12.95
2022-09-28T08:58:17.059Z,12.94
2022-09-28T08:59:18.060Z,12.94
2022-09-28T09:00:19.060Z,12.87
2022-09-28T09:01:13.115Z,12.88
2022-09-28T09:02:19.121Z,12.91
2022-09-28T09:03:21.245Z,12.99
2022-09-28T09:04:11.178Z,13.01
2022-09-28T09:05:15.096Z,13.05
2022-09-28T09:06:19.061Z,13.07
2022-09-28T09:07:19.065Z,13.09
2022-09-28T09:08:19.064Z,13.06
2022-09-28T09:09:22.063Z,13.04
2022-09-28T09:10:22.064Z,13.08
2022-09-28T09:11:22.062Z,13.18
2022-09-28T09:12:19.058Z,13.21
2022-09-28T09:13:19.065Z,13.31
2022-09-28T09:14:19.115Z,13.33
2022-09-28T09:15:21.064Z,13.36
2022-09-28T09:16:19.085Z,13.45
2022-09-28T09:17:19.061Z,13.47
2022-09-28T09:18:20.168Z,13.55
2022-09-28T09:19:22.070Z,13.66
2022-09-28T09:20:18.064Z,13.74
2022-09-28T09:21:16.058Z,13.67
2022-09-28T09:22:21.056Z,13.74
2022-09-28T09:23:18.072Z,13.84
2022-09-28T09:24:19.205Z,13.84
2022-09-28T09:25:18.059Z,13.82
2022-09-28T09:26:21.926Z,13.71
2022-09-28T09:27:20.334Z,13.74
2022-09-28T09:28:19.059Z,13.73
2022-09-28T09:29:22.065Z,13.75
2022-09-28T09:30:18.032Z,13.82
2022-09-28T09:31:21.952Z,13.90
2022-09-28T09:32:19.058Z,14.00
2022-09-28T09:33:19.060Z,14.13
2022-09-28T09:34:19.193Z,13.99
2022-09-28T09:35:21.315Z,13.96
2022-09-28T09:36:19.061Z,14.13
2022-09-28T09:37:22.058Z,14.21
2022-09-28T09:38:19.061Z,14.35
2022-09-28T09:39:19.065Z,14.44
2022-09-28T09:40:19.215Z,14.47
2022-09-28T09:41:22.083Z,14.50
2022-09-28T09:42:22.059Z,14.54
2022-09-28T09:43:22.060Z,14.49
2022-09-28T09:44:19.172Z,14.43
2022-09-28T09:45:19.058Z,14.42
2022-09-28T09:46:19.113Z,14.52
2022-09-28T09:47:13.062Z,14.50
2022-09-28T09:48:19.060Z,14.36
2022-09-28T09:49:19.061Z,14.23
2022-09-28T09:50:20.070Z,14.30
2022-09-28T09:51:19.063Z,14.22
2022-09-28T09:52:22.088Z,14.15
2022-09-28T09:53:19.065Z,14.15
2022-09-28T09:54:20.062Z,14.07
2022-09-28T09:55:24.174Z,13.82
2022-09-28T09:56:19.162Z,13.88
2022-09-28T09:57:19.063Z,13.95
2022-09-28T09:58:14.060Z,14.10
2022-09-28T09:59:14.110Z,14.22
2022-09-28T10:00:15.074Z,14.27
2022-09-28T10:01:14.141Z,14.27
2022-09-28T10:02:19.079Z,14.44
2022-09-28T10:03:21.063Z,14.45
2022-09-28T10:04:17.073Z,14.53
2022-09-28T10:05:23.063Z,14.55
2022-09-28T10:06:16.061Z,14.58
2022-09-28T10:07:15.064Z,14.59
2022-09-28T10:08:19.064Z,14.53
2022-09-28T10:09:20.066Z,14.56
2022-09-28T10:10:18.127Z,14.64
2022-09-28T10:11:20.059Z,14.64
2022-09-28T10:12:19.064Z,14.64
2022-09-28T10:13:11.064Z,14.76
2022-09-28T10:14:18.065Z,14.86
2022-09-28T10:15:14.063Z,14.86
2022-09-28T10:16:11.066Z,14.70
2022-09-28T10:17:14.069Z,14.74
2022-09-28T10:18:15.061Z,14.76
2022-09-28T10:19:12.066Z,14.77
2022-09-28T10:20:13.073Z,14.80
2022-09-28T10:21:14.058Z,14.87
2022-09-28T10:22:17.060Z,14.84
2022-09-28T10:23:21.081Z,14.86
2022-09-28T10:24:18.059Z,14.95
2022-09-28T10:25:12.059Z,15.08
2022-09-28T10:26:22.852Z,15.17
2022-09-28T10:27:18.082Z,15.31
2022-09-28T10:28:18.070Z,15.28
2022-09-28T10:29:16.127Z,15.27
2022-09-28T10:30:20.059Z,15.23
2022-09-28T10:31:19.062Z,15.24
2022-09-28T10:32:18.058Z,15.27
2022-09-28T10:33:19.071Z,14.95
2022-09-28T10:34:12.065Z,14.86
2022-09-28T10:35:19.058Z,14.88
2022-09-28T10:36:11.063Z,14.88
2022-09-28T10:37:12.072Z,14.91
2022-09-28T10:38:15.068Z,14.99
2022-09-28T10:39:19.058Z,15.12
2022-09-28T10:40:19.147Z,15.25
2022-09-28T10:41:13.068Z,15.31
2022-09-28T10:42:11.088Z,15.36
2022-09-28T10:43:19.063Z,15.50
2022-09-28T10:44:16.105Z,15.55
2022-09-28T10:45:19.073Z,15.57
2022-09-28T10:46:11.133Z,15.61
2022-09-28T10:47:14.068Z,15.62
2022-09-28T10:48:19.059Z,15.45
2022-09-28T10:49:17.072Z,15.43
2022-09-28T10:50:19.063Z,15.36
2022-09-28T10:51:11.060Z,15.32
2022-09-28T10:52:20.063Z,15.37
2022-09-28T10:53:18.070Z,15.44
2022-09-28T10:54:15.255Z,15.51
2022-09-28T10:55:19.069Z,15.62
2022-09-28T10:56:19.063Z,15.41
2022-09-28T10:57:19.063Z,15.19
2022-09-28T10:58:22.070Z,15.20
2022-09-28T10:59:19.064Z,14.91
2022-09-28T11:00:19.062Z,14.97
2022-09-28T11:01:13.156Z,15.11
2022-09-28T11:02:19.106Z,15.31
2022-09-28T11:03:19.076Z,15.50
2022-09-28T11:04:19.156Z,15.47
2022-09-28T11:05:19.064Z,15.59
2022-09-28T11:06:11.065Z,15.52
2022-09-28T11:07:18.070Z,15.30
2022-09-28T11:08:15.063Z,15.07
2022-09-28T11:09:19.154Z,14.95
2022-09-28T11:10:21.068Z,14.75
2022-09-28T11:11:15.071Z,14.75
2022-09-28T11:12:15.062Z,14.94
2022-09-28T11:13:11.061Z,14.77
2022-09-28T11:14:19.073Z,14.91
2022-09-28T11:15:17.065Z,15.08
2022-09-28T11:16:15.146Z,15.32
2022-09-28T11:17:15.067Z,15.21
2022-09-28T11:18:18.073Z,15.08
2022-09-28T11:19:19.201Z,15.09
2022-09-28T11:20:22.411Z,15.23
2022-09-28T11:21:16.096Z,15.34
2022-09-28T11:22:19.060Z,15.16
2022-09-28T11:23:22.066Z,15.12
2022-09-28T11:24:21.498Z,15.04
2022-09-28T11:25:21.055Z,15.13
2022-09-28T11:26:14.823Z,15.28
2022-09-28T11:27:21.077Z,15.35
2022-09-28T11:28:19.065Z,15.42
2022-09-28T11:29:21.059Z,15.53
2022-09-28T11:30:22.091Z,15.64
2022-09-28T11:31:11.143Z,15.71
2022-09-28T11:32:15.520Z,15.68
2022-09-28T11:33:22.067Z,15.54
2022-09-28T11:34:19.141Z,15.50
2022-09-28T11:35:19.057Z,15.63
2022-09-28T11:36:22.059Z,15.54
2022-09-28T11:37:25.059Z,15.43
2022-09-28T11:38:22.064Z,15.56
2022-09-28T11:39:18.276Z,15.62
2022-09-28T11:40:19.124Z,15.83
2022-09-28T11:41:19.060Z,15.97
2022-09-28T11:42:22.063Z,15.95
2022-09-28T11:43:22.059Z,15.91
2022-09-28T11:44:19.311Z,16.12
2022-09-28T11:45:19.062Z,16.35
2022-09-28T11:46:19.097Z,16.42
2022-09-28T11:47:19.085Z,16.46
2022-09-28T11:48:12.062Z,16.37
2022-09-28T11:49:22.061Z,16.30
2022-09-28T11:50:23.799Z,16.27
2022-09-28T11:51:18.081Z,16.19
2022-09-28T11:52:20.062Z,16.08
2022-09-28T11:53:19.063Z,15.97
2022-09-28T11:54:26.068Z,15.99
2022-09-28T11:55:18.062Z,15.92
2022-09-28T11:56:19.059Z,15.96
2022-09-28T11:57:15.065Z,16.00
2022-09-28T11:58:22.070Z,16.05
2022-09-28T11:59:17.064Z,15.99
2022-09-28T12:00:18.062Z,15.96
2022-09-28T12:01:19.267Z,15.86
2022-09-28T12:02:22.196Z,15.86
2022-09-28T12:03:25.209Z,15.79
2022-09-28T12:04:19.187Z,15.77
2022-09-28T12:05:25.064Z,15.63
2022-09-28T12:06:16.063Z,15.43
2022-09-28T12:07:19.060Z,15.49
2022-09-28T12:08:19.063Z,15.68
2022-09-28T12:09:17.079Z,15.80
2022-09-28T12:10:24.067Z,15.97
2022-09-28T12:11:21.065Z,16.05
2022-09-28T12:12:19.065Z,16.10
2022-09-28T12:13:19.066Z,15.92
2022-09-28T12:14:19.073Z,15.95
2022-09-28T12:15:19.072Z,15.89
2022-09-28T12:16:38.852Z,15.87
2022-09-28T12:17:27.412Z,15.94
2022-09-28T12:18:19.060Z,15.81
2022-09-28T12:19:18.229Z,15.66
2022-09-28T12:20:22.072Z,15.58
2022-09-28T12:21:19.063Z,15.47
2022-09-28T12:22:20.059Z,15.35
2022-09-28T12:23:17.055Z,15.30
2022-09-28T12:24:19.059Z,15.20
2022-09-28T12:25:18.060Z,15.18
2022-09-28T12:26:19.059Z,15.22
2022-09-28T12:27:19.058Z,15.26
2022-09-28T12:28:22.056Z,15.38
2022-09-28T12:29:18.162Z,15.46
2022-09-28T12:30:15.064Z,15.61
2022-09-28T12:31:15.074Z,15.72
2022-09-28T12:32:19.055Z,15.72
2022-09-28T12:33:12.060Z,15.81
2022-09-28T12:34:11.066Z,15.82
2022-09-28T12:35:14.057Z,15.81
2022-09-28T12:36:19.060Z,15.78
2022-09-28T12:37:18.062Z,15.66
2022-09-28T12:38:20.063Z,15.57
2022-09-28T12:39:30.781Z,15.43
2022-09-28T12:40:21.123Z,15.34
2022-09-28T12:41:19.070Z,15.19
2022-09-28T12:42:19.062Z,15.04
2022-09-28T12:43:19.075Z,15.01
2022-09-28T12:44:19.062Z,14.97
2022-09-28T12:45:19.059Z,14.94
2022-09-28T12:46:19.136Z,15.04
2022-09-28T12:47:19.061Z,15.09
2022-09-28T12:48:23.084Z,15.10
2022-09-28T12:50:33.304Z,15.12
2022-09-28T12:50:39.965Z,15.10
2022-09-28T12:51:21.073Z,15.16
2022-09-28T12:52:19.062Z,15.21
2022-09-28T12:53:19.067Z,15.30
2022-09-28T12:54:19.231Z,15.35
2022-09-28T12:55:19.075Z,15.27
2022-09-28T12:56:21.823Z,15.25
2022-09-28T12:57:19.062Z,15.23
2022-09-28T12:58:22.062Z,15.19
2022-09-28T12:59:19.231Z,15.08
2022-09-28T13:00:18.064Z,15.06
2022-09-28T13:01:19.103Z,15.02
2022-09-28T13:02:19.097Z,14.94
2022-09-28T13:03:22.064Z,14.86
2022-09-28T13:04:22.065Z,14.82
2022-09-28T13:05:19.074Z,14.78
2022-09-28T13:06:19.068Z,14.67
2022-09-28T13:07:19.063Z,14.62
2022-09-28T13:08:21.066Z,14.58